sensor_id;sensor_type;location;lat;lon;timestamp;P1;durP1;ratioP1;P2;durP2;ratioP2
21661;SDS011;10992;48.170;8.596;2024-01-25T00:01:52;11.05;;;2.35;;
21661;SDS011;10992;48.170;8.596;2024-01-25T00:04:21;8.20;;;2.00;;
21661;SDS011;10992;48.170;8.596;2024-01-25T00:06:48;9.18;;;1.85;;
21661;SDS011;10992;48.170;8.596;2024-01-25T00:09:15;10.00;;;2.25;;
21661;SDS011;10992;48.170;8.596;2024-01-25T00:11:42;11.07;;;3.00;;
21661;SDS011;10992;48.170;8.596;2024-01-25T00:14:09;10.70;;;2.50;;
21661;SDS011;10992;48.170;8.596;2024-01-25T00:16:39;9.70;;;2.53;;
21661;SDS011;10992;48.170;8.596;2024-01-25T00:19:08;7.32;;;1.90;;
21661;SDS011;10992;48.170;8.596;2024-01-25T00:21:35;9.50;;;2.17;;
21661;SDS011;10992;48.170;8.596;2024-01-25T00:24:07;11.65;;;2.90;;
21661;SDS011;10992;48.170;8.596;2024-01-25T00:26:34;9.00;;;2.35;;
21661;SDS011;10992;48.170;8.596;2024-01-25T00:29:01;10.75;;;2.17;;
21661;SDS011;10992;48.170;8.596;2024-01-25T00:31:27;7.13;;;1.85;;
21661;SDS011;10992;48.170;8.596;2024-01-25T00:33:54;9.68;;;2.45;;
21661;SDS011;10992;48.170;8.596;2024-01-25T00:36:22;10.90;;;2.38;;
21661;SDS011;10992;48.170;8.596;2024-01-25T00:38:49;9.55;;;2.40;;
21661;SDS011;10992;48.170;8.596;2024-01-25T00:41:17;8.70;;;2.15;;
21661;SDS011;10992;48.170;8.596;2024-01-25T00:43:47;8.80;;;2.22;;
21661;SDS011;10992;48.170;8.596;2024-01-25T00:46:14;7.05;;;1.65;;
21661;SDS011;10992;48.170;8.596;2024-01-25T00:48:41;5.38;;;1.70;;
21661;SDS011;10992;48.170;8.596;2024-01-25T00:51:14;7.97;;;1.55;;
21661;SDS011;10992;48.170;8.596;2024-01-25T00:53:42;7.13;;;1.85;;
21661;SDS011;10992;48.170;8.596;2024-01-25T00:56:10;5.68;;;1.30;;
21661;SDS011;10992;48.170;8.596;2024-01-25T00:58:37;6.15;;;1.42;;
21661;SDS011;10992;48.170;8.596;2024-01-25T01:01:04;7.38;;;1.48;;
21661;SDS011;10992;48.170;8.596;2024-01-25T01:03:32;10.40;;;1.90;;
21661;SDS011;10992;48.170;8.596;2024-01-25T01:05:59;6.07;;;1.80;;
21661;SDS011;10992;48.170;8.596;2024-01-25T01:08:27;10.88;;;1.70;;
21661;SDS011;10992;48.170;8.596;2024-01-25T01:10:54;5.95;;;1.48;;
21661;SDS011;10992;48.170;8.596;2024-01-25T01:13:21;7.32;;;1.55;;
21661;SDS011;10992;48.170;8.596;2024-01-25T01:15:48;6.05;;;1.20;;
21661;SDS011;10992;48.170;8.596;2024-01-25T01:18:16;4.05;;;1.50;;
21661;SDS011;10992;48.170;8.596;2024-01-25T01:20:43;7.47;;;1.60;;
21661;SDS011;10992;48.170;8.596;2024-01-25T01:23:12;5.28;;;1.35;;
21661;SDS011;10992;48.170;8.596;2024-01-25T01:25:39;7.95;;;1.30;;
21661;SDS011;10992;48.170;8.596;2024-01-25T01:28:06;5.55;;;1.13;;
21661;SDS011;10992;48.170;8.596;2024-01-25T01:30:32;6.20;;;1.35;;
21661;SDS011;10992;48.170;8.596;2024-01-25T01:32:59;6.15;;;1.17;;
21661;SDS011;10992;48.170;8.596;2024-01-25T01:35:26;4.13;;;1.33;;
21661;SDS011;10992;48.170;8.596;2024-01-25T01:37:53;2.40;;;1.05;;
21661;SDS011;10992;48.170;8.596;2024-01-25T01:40:20;4.75;;;1.23;;
21661;SDS011;10992;48.170;8.596;2024-01-25T01:42:47;4.25;;;1.30;;
21661;SDS011;10992;48.170;8.596;2024-01-25T01:45:14;7.28;;;1.33;;
21661;SDS011;10992;48.170;8.596;2024-01-25T01:47:41;6.15;;;1.10;;
21661;SDS011;10992;48.170;8.596;2024-01-25T01:50:09;6.75;;;1.23;;
21661;SDS011;10992;48.170;8.596;2024-01-25T01:52:36;6.97;;;1.38;;
21661;SDS011;10992;48.170;8.596;2024-01-25T01:55:03;5.57;;;1.27;;
21661;SDS011;10992;48.170;8.596;2024-01-25T01:57:31;6.78;;;1.35;;
21661;SDS011;10992;48.170;8.596;2024-01-25T01:59:58;2.85;;;0.90;;
21661;SDS011;10992;48.170;8.596;2024-01-25T02:02:36;4.35;;;1.27;;
21661;SDS011;10992;48.170;8.596;2024-01-25T02:05:04;2.20;;;1.20;;
21661;SDS011;10992;48.170;8.596;2024-01-25T02:07:31;4.40;;;1.30;;
21661;SDS011;10992;48.170;8.596;2024-01-25T02:09:59;10.75;;;1.48;;
21661;SDS011;10992;48.170;8.596;2024-01-25T02:12:26;5.45;;;1.60;;
21661;SDS011;10992;48.170;8.596;2024-01-25T02:14:52;4.18;;;1.42;;
21661;SDS011;10992;48.170;8.596;2024-01-25T02:17:19;7.60;;;1.60;;
21661;SDS011;10992;48.170;8.596;2024-01-25T02:19:46;5.88;;;1.48;;
21661;SDS011;10992;48.170;8.596;2024-01-25T02:22:19;6.75;;;1.75;;
21661;SDS011;10992;48.170;8.596;2024-01-25T02:24:46;7.13;;;1.92;;
21661;SDS011;10992;48.170;8.596;2024-01-25T02:27:14;4.88;;;1.20;;
21661;SDS011;10992;48.170;8.596;2024-01-25T02:29:40;4.85;;;1.67;;
21661;SDS011;10992;48.170;8.596;2024-01-25T02:32:07;4.20;;;1.50;;
21661;SDS011;10992;48.170;8.596;2024-01-25T02:34:34;5.90;;;1.60;;
21661;SDS011;10992;48.170;8.596;2024-01-25T02:37:01;3.60;;;1.27;;
21661;SDS011;10992;48.170;8.596;2024-01-25T02:39:29;5.40;;;1.42;;
21661;SDS011;10992;48.170;8.596;2024-01-25T02:41:56;5.40;;;1.17;;
21661;SDS011;10992;48.170;8.596;2024-01-25T02:44:23;4.85;;;1.15;;
21661;SDS011;10992;48.170;8.596;2024-01-25T02:46:50;5.05;;;1.00;;
21661;SDS011;10992;48.170;8.596;2024-01-25T02:49:17;5.68;;;1.75;;
21661;SDS011;10992;48.170;8.596;2024-01-25T02:51:44;4.40;;;1.00;;
21661;SDS011;10992;48.170;8.596;2024-01-25T02:54:11;4.18;;;1.00;;
21661;SDS011;10992;48.170;8.596;2024-01-25T02:56:38;3.85;;;1.02;;
21661;SDS011;10992;48.170;8.596;2024-01-25T02:59:04;3.67;;;0.85;;
21661;SDS011;10992;48.170;8.596;2024-01-25T03:01:38;2.78;;;0.80;;
21661;SDS011;10992;48.170;8.596;2024-01-25T03:04:08;1.92;;;0.85;;
21661;SDS011;10992;48.170;8.596;2024-01-25T03:06:36;5.15;;;1.00;;
21661;SDS011;10992;48.170;8.596;2024-01-25T03:09:03;6.43;;;1.38;;
21661;SDS011;10992;48.170;8.596;2024-01-25T03:11:33;4.03;;;0.90;;
21661;SDS011;10992;48.170;8.596;2024-01-25T03:14:00;2.55;;;0.75;;
21661;SDS011;10992;48.170;8.596;2024-01-25T03:16:27;4.50;;;0.80;;
21661;SDS011;10992;48.170;8.596;2024-01-25T03:18:53;3.00;;;1.00;;
21661;SDS011;10992;48.170;8.596;2024-01-25T03:21:20;5.35;;;1.23;;
21661;SDS011;10992;48.170;8.596;2024-01-25T03:23:47;2.78;;;0.77;;
21661;SDS011;10992;48.170;8.596;2024-01-25T03:26:14;1.60;;;0.85;;
21661;SDS011;10992;48.170;8.596;2024-01-25T03:28:41;6.45;;;1.30;;
21661;SDS011;10992;48.170;8.596;2024-01-25T03:31:08;5.30;;;0.93;;
21661;SDS011;10992;48.170;8.596;2024-01-25T03:33:34;2.75;;;1.02;;
21661;SDS011;10992;48.170;8.596;2024-01-25T03:36:02;3.20;;;1.20;;
21661;SDS011;10992;48.170;8.596;2024-01-25T03:38:30;2.17;;;0.80;;
21661;SDS011;10992;48.170;8.596;2024-01-25T03:40:57;3.42;;;0.90;;
21661;SDS011;10992;48.170;8.596;2024-01-25T03:43:25;6.32;;;1.17;;
21661;SDS011;10992;48.170;8.596;2024-01-25T03:46:01;1.88;;;0.90;;
21661;SDS011;10992;48.170;8.596;2024-01-25T03:48:30;4.88;;;0.85;;
21661;SDS011;10992;48.170;8.596;2024-01-25T03:50:57;4.45;;;0.90;;
21661;SDS011;10992;48.170;8.596;2024-01-25T03:53:24;3.97;;;0.70;;
21661;SDS011;10992;48.170;8.596;2024-01-25T03:55:51;4.22;;;1.08;;
21661;SDS011;10992;48.170;8.596;2024-01-25T03:58:17;1.23;;;0.85;;
21661;SDS011;10992;48.170;8.596;2024-01-25T04:00:44;3.15;;;0.80;;
21661;SDS011;10992;48.170;8.596;2024-01-25T04:03:11;3.28;;;0.70;;
21661;SDS011;10992;48.170;8.596;2024-01-25T04:05:38;2.45;;;1.13;;
21661;SDS011;10992;48.170;8.596;2024-01-25T04:08:06;3.10;;;0.73;;
21661;SDS011;10992;48.170;8.596;2024-01-25T04:10:33;2.10;;;0.52;;
21661;SDS011;10992;48.170;8.596;2024-01-25T04:13:00;2.28;;;1.10;;
21661;SDS011;10992;48.170;8.596;2024-01-25T04:15:28;1.83;;;0.68;;
21661;SDS011;10992;48.170;8.596;2024-01-25T04:17:55;3.28;;;0.95;;
21661;SDS011;10992;48.170;8.596;2024-01-25T04:20:22;3.15;;;0.75;;
21661;SDS011;10992;48.170;8.596;2024-01-25T04:22:49;4.18;;;0.90;;
21661;SDS011;10992;48.170;8.596;2024-01-25T04:25:17;2.50;;;0.93;;
21661;SDS011;10992;48.170;8.596;2024-01-25T04:27:44;2.80;;;0.90;;
21661;SDS011;10992;48.170;8.596;2024-01-25T04:30:11;2.28;;;0.73;;
21661;SDS011;10992;48.170;8.596;2024-01-25T04:32:38;2.75;;;0.90;;
21661;SDS011;10992;48.170;8.596;2024-01-25T04:35:05;3.00;;;0.90;;
21661;SDS011;10992;48.170;8.596;2024-01-25T04:37:32;3.47;;;0.73;;
21661;SDS011;10992;48.170;8.596;2024-01-25T04:40:00;5.22;;;0.85;;
21661;SDS011;10992;48.170;8.596;2024-01-25T04:42:27;5.65;;;1.08;;
21661;SDS011;10992;48.170;8.596;2024-01-25T04:44:54;2.70;;;1.10;;
21661;SDS011;10992;48.170;8.596;2024-01-25T04:47:21;2.50;;;1.10;;
21661;SDS011;10992;48.170;8.596;2024-01-25T04:49:48;4.28;;;0.80;;
21661;SDS011;10992;48.170;8.596;2024-01-25T04:52:15;5.18;;;1.00;;
21661;SDS011;10992;48.170;8.596;2024-01-25T04:54:42;3.95;;;1.08;;
21661;SDS011;10992;48.170;8.596;2024-01-25T04:57:09;1.52;;;0.55;;
21661;SDS011;10992;48.170;8.596;2024-01-25T04:59:36;3.60;;;1.27;;
21661;SDS011;10992;48.170;8.596;2024-01-25T05:02:02;1.40;;;0.55;;
21661;SDS011;10992;48.170;8.596;2024-01-25T05:04:30;2.00;;;0.85;;
21661;SDS011;10992;48.170;8.596;2024-01-25T05:06:58;1.40;;;0.70;;
21661;SDS011;10992;48.170;8.596;2024-01-25T05:09:25;3.97;;;0.80;;
21661;SDS011;10992;48.170;8.596;2024-01-25T05:11:51;1.42;;;0.73;;
21661;SDS011;10992;48.170;8.596;2024-01-25T05:14:18;5.18;;;0.90;;
21661;SDS011;10992;48.170;8.596;2024-01-25T05:16:45;1.52;;;0.88;;
21661;SDS011;10992;48.170;8.596;2024-01-25T05:19:12;3.28;;;0.93;;
21661;SDS011;10992;48.170;8.596;2024-01-25T05:21:39;2.85;;;0.80;;
21661;SDS011;10992;48.170;8.596;2024-01-25T05:24:06;2.50;;;1.02;;
21661;SDS011;10992;48.170;8.596;2024-01-25T05:26:34;1.75;;;0.80;;
21661;SDS011;10992;48.170;8.596;2024-01-25T05:29:01;2.88;;;0.65;;
21661;SDS011;10992;48.170;8.596;2024-01-25T05:31:27;3.13;;;1.13;;
21661;SDS011;10992;48.170;8.596;2024-01-25T05:33:55;1.08;;;0.80;;
21661;SDS011;10992;48.170;8.596;2024-01-25T05:36:22;2.03;;;0.90;;
21661;SDS011;10992;48.170;8.596;2024-01-25T05:38:48;2.58;;;0.82;;
21661;SDS011;10992;48.170;8.596;2024-01-25T05:41:15;1.70;;;0.75;;
21661;SDS011;10992;48.170;8.596;2024-01-25T05:43:42;2.40;;;0.75;;
21661;SDS011;10992;48.170;8.596;2024-01-25T05:46:09;1.88;;;0.80;;
21661;SDS011;10992;48.170;8.596;2024-01-25T05:48:36;0.73;;;0.65;;
21661;SDS011;10992;48.170;8.596;2024-01-25T05:51:03;3.35;;;0.85;;
21661;SDS011;10992;48.170;8.596;2024-01-25T05:53:30;3.33;;;1.45;;
21661;SDS011;10992;48.170;8.596;2024-01-25T05:55:57;5.10;;;2.60;;
21661;SDS011;10992;48.170;8.596;2024-01-25T05:58:24;3.47;;;1.77;;
21661;SDS011;10992;48.170;8.596;2024-01-25T06:00:51;4.57;;;1.20;;
21661;SDS011;10992;48.170;8.596;2024-01-25T06:03:18;5.47;;;2.63;;
21661;SDS011;10992;48.170;8.596;2024-01-25T06:05:45;5.28;;;2.78;;
21661;SDS011;10992;48.170;8.596;2024-01-25T06:08:12;4.00;;;2.45;;
21661;SDS011;10992;48.170;8.596;2024-01-25T06:10:39;5.93;;;4.03;;
21661;SDS011;10992;48.170;8.596;2024-01-25T06:13:06;6.47;;;3.20;;
21661;SDS011;10992;48.170;8.596;2024-01-25T06:15:33;10.68;;;3.00;;
21661;SDS011;10992;48.170;8.596;2024-01-25T06:18:00;6.03;;;2.10;;
21661;SDS011;10992;48.170;8.596;2024-01-25T06:20:27;6.70;;;1.73;;
21661;SDS011;10992;48.170;8.596;2024-01-25T06:22:54;2.00;;;1.25;;
21661;SDS011;10992;48.170;8.596;2024-01-25T06:25:21;3.10;;;1.10;;
21661;SDS011;10992;48.170;8.596;2024-01-25T06:27:48;5.18;;;1.20;;
21661;SDS011;10992;48.170;8.596;2024-01-25T06:30:15;2.28;;;0.90;;
21661;SDS011;10992;48.170;8.596;2024-01-25T06:32:42;3.20;;;1.23;;
21661;SDS011;10992;48.170;8.596;2024-01-25T06:35:09;2.90;;;0.80;;
21661;SDS011;10992;48.170;8.596;2024-01-25T06:37:36;1.95;;;1.10;;
21661;SDS011;10992;48.170;8.596;2024-01-25T06:40:04;2.17;;;0.95;;
21661;SDS011;10992;48.170;8.596;2024-01-25T06:42:32;2.45;;;1.23;;
21661;SDS011;10992;48.170;8.596;2024-01-25T06:44:58;1.40;;;0.90;;
21661;SDS011;10992;48.170;8.596;2024-01-25T06:47:25;3.13;;;0.90;;
21661;SDS011;10992;48.170;8.596;2024-01-25T06:49:52;1.58;;;0.90;;
21661;SDS011;10992;48.170;8.596;2024-01-25T06:52:19;3.05;;;1.92;;
21661;SDS011;10992;48.170;8.596;2024-01-25T06:54:46;4.00;;;2.22;;
21661;SDS011;10992;48.170;8.596;2024-01-25T06:57:13;5.20;;;2.25;;
21661;SDS011;10992;48.170;8.596;2024-01-25T06:59:40;13.75;;;10.60;;
21661;SDS011;10992;48.170;8.596;2024-01-25T07:02:08;8.23;;;3.53;;
21661;SDS011;10992;48.170;8.596;2024-01-25T07:04:36;4.60;;;2.00;;
21661;SDS011;10992;48.170;8.596;2024-01-25T07:07:04;2.65;;;1.33;;
21661;SDS011;10992;48.170;8.596;2024-01-25T07:09:31;3.20;;;1.33;;
21661;SDS011;10992;48.170;8.596;2024-01-25T07:11:58;1.50;;;1.05;;
21661;SDS011;10992;48.170;8.596;2024-01-25T07:14:25;4.45;;;1.40;;
21661;SDS011;10992;48.170;8.596;2024-01-25T07:16:52;3.65;;;1.40;;
21661;SDS011;10992;48.170;8.596;2024-01-25T07:19:19;1.60;;;1.48;;
21661;SDS011;10992;48.170;8.596;2024-01-25T07:21:46;6.82;;;1.52;;
21661;SDS011;10992;48.170;8.596;2024-01-25T07:24:13;2.63;;;1.25;;
21661;SDS011;10992;48.170;8.596;2024-01-25T07:26:41;2.40;;;1.10;;
21661;SDS011;10992;48.170;8.596;2024-01-25T07:29:08;3.80;;;1.80;;
21661;SDS011;10992;48.170;8.596;2024-01-25T07:31:34;6.55;;;2.67;;
21661;SDS011;10992;48.170;8.596;2024-01-25T07:34:01;5.00;;;2.40;;
21661;SDS011;10992;48.170;8.596;2024-01-25T07:36:28;6.50;;;2.70;;
21661;SDS011;10992;48.170;8.596;2024-01-25T07:38:55;4.88;;;2.50;;
21661;SDS011;10992;48.170;8.596;2024-01-25T07:41:23;6.07;;;2.22;;
21661;SDS011;10992;48.170;8.596;2024-01-25T07:43:49;6.38;;;2.20;;
21661;SDS011;10992;48.170;8.596;2024-01-25T07:46:21;5.28;;;1.55;;
21661;SDS011;10992;48.170;8.596;2024-01-25T07:48:50;4.93;;;1.15;;
21661;SDS011;10992;48.170;8.596;2024-01-25T07:51:17;10.35;;;2.03;;
21661;SDS011;10992;48.170;8.596;2024-01-25T07:53:44;4.90;;;1.67;;
21661;SDS011;10992;48.170;8.596;2024-01-25T07:56:11;4.78;;;1.42;;
21661;SDS011;10992;48.170;8.596;2024-01-25T07:58:38;5.53;;;1.42;;
21661;SDS011;10992;48.170;8.596;2024-01-25T08:01:05;4.60;;;1.38;;
21661;SDS011;10992;48.170;8.596;2024-01-25T08:03:33;4.88;;;1.77;;
21661;SDS011;10992;48.170;8.596;2024-01-25T08:06:01;3.45;;;1.48;;
21661;SDS011;10992;48.170;8.596;2024-01-25T08:08:29;4.50;;;1.40;;
21661;SDS011;10992;48.170;8.596;2024-01-25T08:10:56;4.25;;;1.75;;
21661;SDS011;10992;48.170;8.596;2024-01-25T08:13:25;6.72;;;1.60;;
21661;SDS011;10992;48.170;8.596;2024-01-25T08:15:56;4.85;;;1.98;;
21661;SDS011;10992;48.170;8.596;2024-01-25T08:18:23;10.23;;;3.03;;
21661;SDS011;10992;48.170;8.596;2024-01-25T08:20:51;9.43;;;2.70;;
21661;SDS011;10992;48.170;8.596;2024-01-25T08:23:18;7.35;;;2.83;;
21661;SDS011;10992;48.170;8.596;2024-01-25T08:25:45;8.18;;;2.20;;
21661;SDS011;10992;48.170;8.596;2024-01-25T08:28:12;6.93;;;1.48;;
21661;SDS011;10992;48.170;8.596;2024-01-25T08:30:39;4.80;;;1.40;;
21661;SDS011;10992;48.170;8.596;2024-01-25T08:33:06;2.70;;;1.67;;
21661;SDS011;10992;48.170;8.596;2024-01-25T08:35:33;9.90;;;1.50;;
21661;SDS011;10992;48.170;8.596;2024-01-25T08:38:00;6.97;;;1.42;;
21661;SDS011;10992;48.170;8.596;2024-01-25T08:40:27;5.63;;;1.55;;
21661;SDS011;10992;48.170;8.596;2024-01-25T08:42:56;4.55;;;1.48;;
21661;SDS011;10992;48.170;8.596;2024-01-25T08:45:23;5.65;;;1.50;;
21661;SDS011;10992;48.170;8.596;2024-01-25T08:47:50;3.00;;;1.52;;
21661;SDS011;10992;48.170;8.596;2024-01-25T08:50:17;6.15;;;1.90;;
21661;SDS011;10992;48.170;8.596;2024-01-25T08:52:45;8.52;;;1.95;;
21661;SDS011;10992;48.170;8.596;2024-01-25T08:55:11;8.80;;;1.80;;
21661;SDS011;10992;48.170;8.596;2024-01-25T08:57:38;10.15;;;2.08;;
21661;SDS011;10992;48.170;8.596;2024-01-25T09:00:07;8.10;;;2.08;;
21661;SDS011;10992;48.170;8.596;2024-01-25T09:02:38;7.13;;;2.05;;
21661;SDS011;10992;48.170;8.596;2024-01-25T09:05:05;10.80;;;2.00;;
21661;SDS011;10992;48.170;8.596;2024-01-25T09:07:32;8.95;;;1.88;;
21661;SDS011;10992;48.170;8.596;2024-01-25T09:10:00;6.38;;;1.77;;
21661;SDS011;10992;48.170;8.596;2024-01-25T09:12:27;6.72;;;2.42;;
21661;SDS011;10992;48.170;8.596;2024-01-25T09:14:54;14.05;;;2.55;;
21661;SDS011;10992;48.170;8.596;2024-01-25T09:17:20;10.68;;;2.55;;
21661;SDS011;10992;48.170;8.596;2024-01-25T09:19:50;16.15;;;2.60;;
21661;SDS011;10992;48.170;8.596;2024-01-25T09:22:18;11.40;;;2.65;;
21661;SDS011;10992;48.170;8.596;2024-01-25T09:24:46;7.03;;;2.65;;
21661;SDS011;10992;48.170;8.596;2024-01-25T09:27:14;10.43;;;2.42;;
21661;SDS011;10992;48.170;8.596;2024-01-25T09:29:41;10.35;;;2.78;;
21661;SDS011;10992;48.170;8.596;2024-01-25T09:32:09;6.13;;;2.83;;
21661;SDS011;10992;48.170;8.596;2024-01-25T09:34:37;8.77;;;2.55;;
21661;SDS011;10992;48.170;8.596;2024-01-25T09:37:06;14.10;;;2.78;;
21661;SDS011;10992;48.170;8.596;2024-01-25T09:39:34;8.82;;;2.30;;
21661;SDS011;10992;48.170;8.596;2024-01-25T09:42:02;9.60;;;2.67;;
21661;SDS011;10992;48.170;8.596;2024-01-25T09:44:30;13.32;;;2.50;;
21661;SDS011;10992;48.170;8.596;2024-01-25T09:47:01;8.40;;;2.28;;
21661;SDS011;10992;48.170;8.596;2024-01-25T09:49:32;6.97;;;1.83;;
21661;SDS011;10992;48.170;8.596;2024-01-25T09:52:00;5.60;;;1.60;;
21661;SDS011;10992;48.170;8.596;2024-01-25T09:54:32;6.53;;;1.77;;
21661;SDS011;10992;48.170;8.596;2024-01-25T09:57:03;8.20;;;2.17;;
21661;SDS011;10992;48.170;8.596;2024-01-25T09:59:35;8.10;;;3.80;;
21661;SDS011;10992;48.170;8.596;2024-01-25T10:02:02;9.15;;;2.83;;
21661;SDS011;10992;48.170;8.596;2024-01-25T10:04:30;5.28;;;1.85;;
21661;SDS011;10992;48.170;8.596;2024-01-25T10:06:58;4.30;;;1.45;;
21661;SDS011;10992;48.170;8.596;2024-01-25T10:09:25;1.83;;;1.15;;
21661;SDS011;10992;48.170;8.596;2024-01-25T10:11:53;3.58;;;1.50;;
21661;SDS011;10992;48.170;8.596;2024-01-25T10:14:40;3.15;;;1.70;;
21661;SDS011;10992;48.170;8.596;2024-01-25T10:17:07;4.32;;;1.70;;
21661;SDS011;10992;48.170;8.596;2024-01-25T10:19:34;2.45;;;1.38;;
21661;SDS011;10992;48.170;8.596;2024-01-25T10:22:01;1.13;;;0.80;;
21661;SDS011;10992;48.170;8.596;2024-01-25T10:24:34;2.83;;;1.00;;
21661;SDS011;10992;48.170;8.596;2024-01-25T10:27:01;1.98;;;1.27;;
21661;SDS011;10992;48.170;8.596;2024-01-25T10:29:31;1.08;;;0.82;;
21661;SDS011;10992;48.170;8.596;2024-01-25T10:31:58;1.33;;;0.82;;
21661;SDS011;10992;48.170;8.596;2024-01-25T10:34:25;2.88;;;0.90;;
21661;SDS011;10992;48.170;8.596;2024-01-25T10:36:55;0.65;;;0.40;;
21661;SDS011;10992;48.170;8.596;2024-01-25T10:39:22;0.52;;;0.32;;
21661;SDS011;10992;48.170;8.596;2024-01-25T10:41:51;1.55;;;0.60;;
21661;SDS011;10992;48.170;8.596;2024-01-25T10:44:19;1.23;;;0.70;;
21661;SDS011;10992;48.170;8.596;2024-01-25T10:46:49;1.08;;;0.60;;
21661;SDS011;10992;48.170;8.596;2024-01-25T10:49:16;1.88;;;0.98;;
21661;SDS011;10992;48.170;8.596;2024-01-25T10:51:44;1.33;;;0.70;;
21661;SDS011;10992;48.170;8.596;2024-01-25T10:54:12;0.60;;;0.50;;
21661;SDS011;10992;48.170;8.596;2024-01-25T10:56:44;0.90;;;0.60;;
21661;SDS011;10992;48.170;8.596;2024-01-25T10:59:13;1.05;;;0.70;;
21661;SDS011;10992;48.170;8.596;2024-01-25T11:01:43;2.38;;;1.00;;
21661;SDS011;10992;48.170;8.596;2024-01-25T11:04:15;1.40;;;0.70;;
21661;SDS011;10992;48.170;8.596;2024-01-25T11:06:44;1.23;;;0.70;;
21661;SDS011;10992;48.170;8.596;2024-01-25T11:09:21;1.42;;;1.10;;
21661;SDS011;10992;48.170;8.596;2024-01-25T11:11:48;2.10;;;1.08;;
21661;SDS011;10992;48.170;8.596;2024-01-25T11:14:15;1.35;;;0.80;;
21661;SDS011;10992;48.170;8.596;2024-01-25T11:16:43;2.55;;;1.10;;
21661;SDS011;10992;48.170;8.596;2024-01-25T11:19:17;2.47;;;1.50;;
21661;SDS011;10992;48.170;8.596;2024-01-25T11:21:46;2.92;;;1.80;;
21661;SDS011;10992;48.170;8.596;2024-01-25T11:24:15;3.22;;;1.67;;
21661;SDS011;10992;48.170;8.596;2024-01-25T11:26:48;1.65;;;1.00;;
21661;SDS011;10992;48.170;8.596;2024-01-25T11:29:16;2.13;;;0.70;;
21661;SDS011;10992;48.170;8.596;2024-01-25T11:31:45;1.33;;;0.95;;
21661;SDS011;10992;48.170;8.596;2024-01-25T11:34:16;1.90;;;0.63;;
21661;SDS011;10992;48.170;8.596;2024-01-25T11:36:47;0.47;;;0.45;;
21661;SDS011;10992;48.170;8.596;2024-01-25T11:39:15;2.97;;;0.98;;
21661;SDS011;10992;48.170;8.596;2024-01-25T11:41:43;1.80;;;0.60;;
21661;SDS011;10992;48.170;8.596;2024-01-25T11:44:11;1.80;;;0.50;;
21661;SDS011;10992;48.170;8.596;2024-01-25T11:46:39;0.60;;;0.43;;
21661;SDS011;10992;48.170;8.596;2024-01-25T11:49:06;0.30;;;0.30;;
21661;SDS011;10992;48.170;8.596;2024-01-25T11:51:34;1.50;;;0.60;;
21661;SDS011;10992;48.170;8.596;2024-01-25T11:54:01;0.90;;;0.40;;
21661;SDS011;10992;48.170;8.596;2024-01-25T11:56:31;0.60;;;0.40;;
21661;SDS011;10992;48.170;8.596;2024-01-25T11:59:00;2.20;;;0.60;;
21661;SDS011;10992;48.170;8.596;2024-01-25T12:01:27;1.48;;;0.77;;
21661;SDS011;10992;48.170;8.596;2024-01-25T12:03:57;0.90;;;0.50;;
21661;SDS011;10992;48.170;8.596;2024-01-25T12:06:25;1.02;;;0.40;;
21661;SDS011;10992;48.170;8.596;2024-01-25T12:08:52;0.52;;;0.40;;
21661;SDS011;10992;48.170;8.596;2024-01-25T12:11:19;0.75;;;0.32;;
21661;SDS011;10992;48.170;8.596;2024-01-25T12:13:48;1.38;;;0.40;;
21661;SDS011;10992;48.170;8.596;2024-01-25T12:16:15;0.35;;;0.35;;
21661;SDS011;10992;48.170;8.596;2024-01-25T12:18:43;0.38;;;0.28;;
21661;SDS011;10992;48.170;8.596;2024-01-25T12:21:11;0.57;;;0.30;;
21661;SDS011;10992;48.170;8.596;2024-01-25T12:23:40;0.20;;;0.20;;
21661;SDS011;10992;48.170;8.596;2024-01-25T12:26:08;0.10;;;0.10;;
21661;SDS011;10992;48.170;8.596;2024-01-25T12:28:40;0.95;;;0.10;;
21661;SDS011;10992;48.170;8.596;2024-01-25T12:31:07;0.47;;;0.25;;
21661;SDS011;10992;48.170;8.596;2024-01-25T12:33:35;0.35;;;0.20;;
21661;SDS011;10992;48.170;8.596;2024-01-25T12:36:03;0.22;;;0.20;;
21661;SDS011;10992;48.170;8.596;2024-01-25T12:38:31;0.25;;;0.20;;
21661;SDS011;10992;48.170;8.596;2024-01-25T12:41:00;0.30;;;0.20;;
21661;SDS011;10992;48.170;8.596;2024-01-25T12:43:28;2.05;;;0.20;;
21661;SDS011;10992;48.170;8.596;2024-01-25T12:45:56;1.13;;;0.40;;
21661;SDS011;10992;48.170;8.596;2024-01-25T12:48:34;1.95;;;1.10;;
21661;SDS011;10992;48.170;8.596;2024-01-25T12:51:01;4.50;;;2.05;;
21661;SDS011;10992;48.170;8.596;2024-01-25T12:53:28;3.72;;;1.27;;
21661;SDS011;10992;48.170;8.596;2024-01-25T12:55:55;3.28;;;1.70;;
21661;SDS011;10992;48.170;8.596;2024-01-25T12:58:22;0.70;;;0.43;;
21661;SDS011;10992;48.170;8.596;2024-01-25T13:00:49;0.98;;;0.40;;
21661;SDS011;10992;48.170;8.596;2024-01-25T13:03:16;1.92;;;0.40;;
21661;SDS011;10992;48.170;8.596;2024-01-25T13:05:43;0.85;;;0.40;;
21661;SDS011;10992;48.170;8.596;2024-01-25T13:08:11;1.00;;;0.60;;
21661;SDS011;10992;48.170;8.596;2024-01-25T13:10:37;1.60;;;0.50;;
21661;SDS011;10992;48.170;8.596;2024-01-25T13:13:04;0.43;;;0.40;;
21661;SDS011;10992;48.170;8.596;2024-01-25T13:15:32;0.50;;;0.43;;
21661;SDS011;10992;48.170;8.596;2024-01-25T13:17:59;0.45;;;0.30;;
21661;SDS011;10992;48.170;8.596;2024-01-25T13:20:27;1.02;;;0.50;;
21661;SDS011;10992;48.170;8.596;2024-01-25T13:22:54;0.50;;;0.30;;
21661;SDS011;10992;48.170;8.596;2024-01-25T13:25:21;0.60;;;0.50;;
21661;SDS011;10992;48.170;8.596;2024-01-25T13:27:48;1.15;;;0.90;;
21661;SDS011;10992;48.170;8.596;2024-01-25T13:30:14;4.53;;;1.63;;
21661;SDS011;10992;48.170;8.596;2024-01-25T13:32:42;22.00;;;8.50;;
21661;SDS011;10992;48.170;8.596;2024-01-25T13:35:08;5.22;;;2.47;;
21661;SDS011;10992;48.170;8.596;2024-01-25T13:37:35;3.45;;;2.40;;
21661;SDS011;10992;48.170;8.596;2024-01-25T13:40:02;5.90;;;4.60;;
21661;SDS011;10992;48.170;8.596;2024-01-25T13:42:30;2.85;;;2.13;;
21661;SDS011;10992;48.170;8.596;2024-01-25T13:44:57;1.40;;;1.17;;
21661;SDS011;10992;48.170;8.596;2024-01-25T13:47:24;1.42;;;1.00;;
21661;SDS011;10992;48.170;8.596;2024-01-25T13:49:51;2.13;;;1.25;;
21661;SDS011;10992;48.170;8.596;2024-01-25T13:52:19;1.63;;;1.42;;
21661;SDS011;10992;48.170;8.596;2024-01-25T13:54:47;2.42;;;1.38;;
21661;SDS011;10992;48.170;8.596;2024-01-25T13:57:16;2.22;;;2.03;;
21661;SDS011;10992;48.170;8.596;2024-01-25T13:59:44;2.05;;;1.85;;
21661;SDS011;10992;48.170;8.596;2024-01-25T14:02:11;2.50;;;1.95;;
21661;SDS011;10992;48.170;8.596;2024-01-25T14:04:38;2.20;;;1.77;;
21661;SDS011;10992;48.170;8.596;2024-01-25T14:07:07;2.90;;;2.60;;
21661;SDS011;10992;48.170;8.596;2024-01-25T14:09:34;2.08;;;1.40;;
21661;SDS011;10992;48.170;8.596;2024-01-25T14:12:01;1.77;;;0.88;;
21661;SDS011;10992;48.170;8.596;2024-01-25T14:14:29;0.70;;;0.50;;
21661;SDS011;10992;48.170;8.596;2024-01-25T14:16:56;1.80;;;0.90;;
21661;SDS011;10992;48.170;8.596;2024-01-25T14:19:23;1.77;;;1.08;;
21661;SDS011;10992;48.170;8.596;2024-01-25T14:21:50;3.47;;;2.40;;
21661;SDS011;10992;48.170;8.596;2024-01-25T14:24:37;3.28;;;0.90;;
21661;SDS011;10992;48.170;8.596;2024-01-25T14:27:04;4.03;;;1.17;;
21661;SDS011;10992;48.170;8.596;2024-01-25T14:29:32;1.60;;;1.25;;
21661;SDS011;10992;48.170;8.596;2024-01-25T14:32:00;2.55;;;1.58;;
21661;SDS011;10992;48.170;8.596;2024-01-25T14:34:28;6.97;;;1.88;;
21661;SDS011;10992;48.170;8.596;2024-01-25T14:36:55;4.18;;;1.55;;
21661;SDS011;10992;48.170;8.596;2024-01-25T14:39:22;1.80;;;1.10;;
21661;SDS011;10992;48.170;8.596;2024-01-25T14:41:49;2.45;;;1.85;;
21661;SDS011;10992;48.170;8.596;2024-01-25T14:44:16;2.53;;;1.30;;
21661;SDS011;10992;48.170;8.596;2024-01-25T14:46:43;3.28;;;2.08;;
21661;SDS011;10992;48.170;8.596;2024-01-25T14:49:10;6.85;;;5.47;;